Home Hill, Queensland

3:27 PM AEST on October 26, 2014 (GMT +1000)
HomeHill | Change Station
CLOSE
Current Station
Personal Weather Station
Location: Home Hill, QUEENSLAND
Elevation: 46 ft
Nearby Weather Stations

Elev 46 ft 19.67 °S, 147.42 °E | Updated 1 minute ago

Clear
Clear
82.8 °F
Feels Like 84 °F
N
8.0
Wind Variable Wind from East
Gusts 12.0 mph

Today
High -- | Low -- °F
--% Chance of Precip.
Yesterday
High -- | Low -- °F
Precip. -- in
5:32 AM 6:16 PM
Waxing Crescent, 6% visible
Pressure 29.95 in
Visibility -9999.0 miles
Clouds
Heat Index 84 °F
Dew Point 63 °F
Humidity 52%
Rainfall 0.00 in
Snow Depth Not available.
UV Not available.
Pollen Not available.
Air Quality Not available.
Flu Activity Not available.
METAR YBTL 260500Z 06014KT CAVOK 27/17 Q1014

More Conditions Fewer Conditions

Pressure 29.95 in
Visibility -9999.0 miles
Clouds
Heat Index 84 °F
Dew Point 63 °F
Humidity 52%
Rainfall 0.00 in
Snow Depth Not available.
UV Not available.
Pollen Not available.
Air Quality Not available.
Flu Activity Not available.
METAR YBTL 260500Z 06014KT CAVOK 27/17 Q1014

More Conditions Fewer Conditions

10-Day Weather Forecast

Almanac

Astronomy

Oct. 26, 2014 Rise Set
Actual Time 5:32 AM AEST 6:16 PM AEST
Civil Twilight 5:10 AM AEST 6:38 PM AEST
Nautical Twilight 4:43 AM AEST 7:05 PM AEST
Astronomical Twilight 4:16 AM AEST 7:32 PM AEST
Moon 7:07 AM AEST 8:23 PM AEST
Length of Visible Light 13h 28m
Length of Day
12h 43m
Tomorrow will be 1m 2s longer.
Waxing Crescent, 6% of the Moon is Illuminated
Today
Waxing Crescent
Oct 30
First Quarter
Nov 6
Full
Nov 14
Last Quarter
Nov 22
New

Yesterday's Extremes

Country Highs Country Lows

Community

WunderPhotos

Upload Photos

1,765,112 photos uploaded!

Nearby

Snow Depth

Not available.

Earthquake Activity

City Distance Mag. Time & Date
No recent earthquake activity has been reported nearby.
Minimum magnitude displayed is 2.5.

Coastal Water Temperatures

Place Temperature
No Stations Reporting

Nearby Weather Stations